Terminal Aerodrome Forecast
Issued by NWS

Home | Current Version | Previous Version | Text Only | Print | Product List | Glossary On
Versions: 1 2 3 4 5 6 7 8 9 10 11 12 13
586
FTPA31 PHFO 272320
TAFHKO
TAF
PHKO 272320Z 2800/2824 20012KT P6SM FEW020 BKN050
     FM280800 10005KT P6SM FEW050
     FM282000 20011KT P6SM FEW020 SCT050=

USA.gov is the U.S. government's official web portal to all federal, state and local government web resources and services.